Time;durP1;ratioP1;P1;durP2;ratioP2;P2;SDS_P1;SDS_P2;PMS_P1;PMS_P2;Temp;Humidity;BMP_temperature;BMP_pressure;BME280_temperature;BME280_humidity;BME280_pressure;Samples;Min_cycle;Max_cycle;Signal;HPM_P1;HPM_P2
2021/08/03 00:00:34;;;;;;;1.20;0.80;;;23.20;61.70;;;;;;4988247;28;20398;-63
2021/08/03 00:03:03;;;;;;;2.00;0.90;;;23.20;61.60;;;;;;4987951;28;20391;-61
2021/08/03 00:05:33;;;;;;;2.13;0.63;;;23.20;61.60;;;;;;4986705;28;20479;-62
2021/08/03 00:08:09;;;;;;;1.10;0.70;;;23.20;61.60;;;;;;5017385;28;20401;-62
2021/08/03 00:10:35;;;;;;;1.00;0.70;;;23.20;61.60;;;;;;4985583;28;20881;-62
2021/08/03 00:13:02;;;;;;;1.10;0.70;;;23.20;61.50;;;;;;4985590;28;20515;-62
2021/08/03 00:15:28;;;;;;;1.15;0.70;;;23.20;61.60;;;;;;4986400;28;20912;-62
2021/08/03 00:17:55;;;;;;;1.13;0.70;;;23.20;61.60;;;;;;4985090;28;20410;-62
2021/08/03 00:20:23;;;;;;;1.30;0.77;;;23.20;61.50;;;;;;4984691;28;20886;-62
2021/08/03 00:22:49;;;;;;;1.17;0.80;;;23.20;61.50;;;;;;4986508;28;20398;-62
2021/08/03 00:25:15;;;;;;;1.30;0.70;;;23.20;61.60;;;;;;4987126;28;20861;-62
2021/08/03 00:27:42;;;;;;;1.10;0.70;;;23.20;61.50;;;;;;4986231;28;20866;-62
2021/08/03 00:30:08;;;;;;;1.63;0.75;;;23.20;61.50;;;;;;4988810;28;20445;-62
2021/08/03 00:32:37;;;;;;;1.85;0.90;;;23.20;61.40;;;;;;4986329;28;20445;-62
2021/08/03 00:35:04;;;;;;;1.55;0.65;;;23.20;61.50;;;;;;4988017;28;20397;-62
2021/08/03 00:37:30;;;;;;;1.35;0.77;;;23.20;61.50;;;;;;4985479;28;20391;-62
2021/08/03 00:39:55;;;;;;;1.10;0.75;;;23.20;61.50;;;;;;4984893;28;20963;-62
2021/08/03 00:42:21;;;;;;;1.57;0.70;;;23.20;61.60;;;;;;5015931;28;20485;-62
2021/08/03 00:44:50;;;;;;;1.10;0.77;;;23.20;61.50;;;;;;4984594;28;20405;-62
2021/08/03 00:47:17;;;;;;;1.20;0.80;;;23.10;61.50;;;;;;4985291;28;20426;-62
2021/08/03 00:49:44;;;;;;;1.10;0.70;;;23.20;61.50;;;;;;4984773;28;20390;-62
2021/08/03 00:52:12;;;;;;;1.38;0.80;;;23.10;61.40;;;;;;4983947;28;20386;-62
2021/08/03 00:54:38;;;;;;;1.45;0.80;;;23.10;61.70;;;;;;4985433;28;20406;-62
2021/08/03 00:57:07;;;;;;;1.80;0.90;;;23.10;61.80;;;;;;4984872;28;20396;-62
2021/08/03 00:59:34;;;;;;;0.90;0.70;;;23.10;61.90;;;;;;4990325;28;20389;-62
2021/08/03 01:02:01;;;;;;;1.05;0.70;;;23.10;61.80;;;;;;4989724;28;20505;-62
2021/08/03 01:04:27;;;;;;;1.00;0.73;;;23.20;61.70;;;;;;4989368;28;20389;-63
2021/08/03 01:07:08;;;;;;;1.70;0.70;;;23.10;61.70;;;;;;5017692;28;20437;-63
2021/08/03 01:09:57;;;;;;;2.78;0.90;;;23.10;61.60;;;;;;4995124;28;20416;-63
2021/08/03 01:13:01;;;;;;;1.30;0.73;;;23.10;61.50;;;;;;4991399;28;20796;-62
2021/08/03 01:15:41;;;;;;;1.30;0.73;;;23.10;61.70;;;;;;4988611;28;20409;-62
2021/08/03 01:18:22;;;;;;;1.15;0.70;;;23.10;61.70;;;;;;4991412;28;20901;-62
2021/08/03 01:21:03;;;;;;;1.20;0.70;;;23.10;61.60;;;;;;4993078;28;20432;-62
2021/08/03 01:23:47;;;;;;;1.30;0.70;;;23.10;61.50;;;;;;4992561;28;20395;-62
2021/08/03 01:26:57;;;;;;;1.10;0.60;;;23.10;61.50;;;;;;4983466;28;20914;-62
2021/08/03 01:29:26;;;;;;;1.42;0.80;;;23.10;61.50;;;;;;4989513;28;20427;-62
2021/08/03 01:31:56;;;;;;;1.15;0.70;;;23.10;61.60;;;;;;4992569;28;20398;-62
2021/08/03 01:34:26;;;;;;;1.70;0.80;;;23.10;61.50;;;;;;4994579;28;20399;-62
2021/08/03 01:36:56;;;;;;;0.95;0.70;;;23.10;61.40;;;;;;4991826;28;20434;-62
2021/08/03 01:39:30;;;;;;;2.08;0.80;;;23.10;61.50;;;;;;4983261;28;20390;-62
2021/08/03 01:41:58;;;;;;;1.48;0.70;;;23.10;61.50;;;;;;4989999;28;20402;-62
2021/08/03 01:44:24;;;;;;;1.77;0.70;;;23.10;61.20;;;;;;4986714;28;20397;-62
2021/08/03 01:46:51;;;;;;;1.10;0.80;;;23.10;61.40;;;;;;4988999;28;20420;-62
2021/08/03 01:49:21;;;;;;;1.00;0.60;;;23.10;61.30;;;;;;4994577;28;20892;-62
2021/08/03 01:51:47;;;;;;;1.30;0.80;;;23.10;61.50;;;;;;4989113;28;20446;-62
2021/08/03 01:54:14;;;;;;;1.20;0.80;;;23.00;61.30;;;;;;4992182;28;20394;-62
2021/08/03 01:56:43;;;;;;;1.40;0.90;;;23.10;61.20;;;;;;4987763;28;21073;-62
2021/08/03 01:59:11;;;;;;;1.10;0.70;;;23.00;61.20;;;;;;4993770;28;20383;-62
2021/08/03 02:01:39;;;;;;;1.55;0.82;;;23.10;61.30;;;;;;5024348;28;20400;-62
2021/08/03 02:04:06;;;;;;;1.30;0.80;;;23.00;61.90;;;;;;4993387;28;20388;-62
2021/08/03 02:06:32;;;;;;;1.40;0.75;;;23.00;61.10;;;;;;4986443;28;21098;-62
2021/08/03 02:08:59;;;;;;;1.10;0.70;;;23.00;61.10;;;;;;4993990;28;20424;-62
2021/08/03 02:11:29;;;;;;;1.70;0.80;;;23.00;61.20;;;;;;4998948;28;20760;-62
2021/08/03 02:13:56;;;;;;;1.65;0.90;;;23.00;61.00;;;;;;4987714;28;20492;-62
2021/08/03 02:16:22;;;;;;;1.23;0.80;;;23.00;61.20;;;;;;4988612;28;20399;-62
2021/08/03 02:18:48;;;;;;;1.10;0.80;;;23.00;61.10;;;;;;4991552;28;20826;-62
2021/08/03 02:21:22;;;;;;;1.08;0.70;;;23.00;61.10;;;;;;5024326;28;20422;-62
2021/08/03 02:23:48;;;;;;;1.05;0.73;;;23.00;61.20;;;;;;4993622;28;20385;-62
2021/08/03 02:26:14;;;;;;;1.30;0.70;;;23.00;61.30;;;;;;4998366;28;20542;-62
2021/08/03 02:28:41;;;;;;;1.30;0.90;;;23.00;61.20;;;;;;4992781;28;20407;-62
2021/08/03 02:31:22;;;;;;;1.05;0.70;;;23.00;61.00;;;;;;4992679;28;20395;-62
2021/08/03 02:34:28;;;;;;;1.30;0.80;;;23.00;60.90;;;;;;4996543;28;20385;-62
2021/08/03 02:36:58;;;;;;;1.10;0.70;;;23.00;61.00;;;;;;4986819;28;20522;-62
2021/08/03 02:39:26;;;;;;;1.10;0.80;;;23.00;60.90;;;;;;4991960;28;20396;-61
2021/08/03 02:41:53;;;;;;;1.30;0.73;;;23.00;61.70;;;;;;4992196;28;20401;-62
2021/08/03 02:44:21;;;;;;;1.52;0.80;;;23.00;61.00;;;;;;4991413;28;20389;-62
2021/08/03 02:46:53;;;;;;;1.00;0.80;;;23.00;61.10;;;;;;4992128;28;20466;-62
2021/08/03 02:49:28;;;;;;;1.05;0.70;;;23.00;61.10;;;;;;4990957;28;20868;-62
2021/08/03 02:51:54;;;;;;;1.77;0.80;;;22.90;61.00;;;;;;4987561;28;20402;-62
2021/08/03 02:54:32;;;;;;;1.08;0.65;;;23.00;61.30;;;;;;4992621;28;20390;-62
2021/08/03 02:57:02;;;;;;;0.90;0.60;;;22.90;61.10;;;;;;4991754;28;20403;-62
2021/08/03 02:59:32;;;;;;;1.17;0.60;;;23.00;61.00;;;;;;4994641;28;20429;-62
2021/08/03 03:01:59;;;;;;;1.80;0.63;;;23.00;61.20;;;;;;4992762;28;20441;-62
2021/08/03 03:05:01;;;;;;;1.00;0.70;;;22.90;60.90;;;;;;4985614;28;20394;-62
2021/08/03 03:07:42;;;;;;;1.20;0.80;;;22.90;61.00;;;;;;4990467;28;20441;-61
2021/08/03 03:10:15;;;;;;;1.30;0.70;;;23.00;60.90;;;;;;4992709;28;20393;-62
2021/08/03 03:12:43;;;;;;;1.60;1.00;;;22.90;61.10;;;;;;4992476;28;20448;-62
2021/08/03 03:15:10;;;;;;;2.35;0.90;;;22.90;61.20;;;;;;4997430;28;20541;-62
2021/08/03 03:17:36;;;;;;;1.10;0.70;;;23.00;61.40;;;;;;4991869;28;20406;-62
2021/08/03 03:20:04;;;;;;;2.17;0.90;;;23.00;61.50;;;;;;4991119;28;20383;-62
2021/08/03 03:22:34;;;;;;;3.22;0.90;;;23.00;62.40;;;;;;4991871;28;20389;-62
2021/08/03 03:25:01;;;;;;;3.25;0.90;;;23.10;61.90;;;;;;4988724;28;20382;-62
2021/08/03 03:27:28;;;;;;;2.13;1.10;;;23.10;61.60;;;;;;4990129;28;20466;-62
2021/08/03 03:29:55;;;;;;;3.22;0.90;;;23.10;61.60;;;;;;4991504;28;21049;-62
2021/08/03 03:32:21;;;;;;;2.45;1.17;;;23.20;62.00;;;;;;4993778;28;20460;-62
2021/08/03 03:34:47;;;;;;;1.92;0.82;;;23.20;62.20;;;;;;4992121;28;20417;-62
2021/08/03 03:37:14;;;;;;;1.58;0.80;;;23.20;62.20;;;;;;4994853;28;20387;-62
2021/08/03 03:39:40;;;;;;;3.85;0.85;;;23.20;62.10;;;;;;4994807;28;20443;-62
2021/08/03 03:42:07;;;;;;;2.80;0.80;;;23.20;61.50;;;;;;4991850;28;20397;-62
2021/08/03 03:44:33;;;;;;;2.05;0.82;;;23.20;62.20;;;;;;4991713;28;20408;-62
2021/08/03 03:47:11;;;;;;;2.92;0.70;;;23.20;61.70;;;;;;4989622;28;20426;-62
2021/08/03 03:49:44;;;;;;;2.00;0.90;;;23.20;61.40;;;;;;4992368;28;20427;-62
2021/08/03 03:52:10;;;;;;;3.40;0.90;;;23.20;62.30;;;;;;4990434;28;20396;-62
2021/08/03 03:54:45;;;;;;;1.75;0.93;;;23.30;62.30;;;;;;4993860;28;20775;-62
2021/08/03 03:57:13;;;;;;;1.75;0.80;;;23.30;61.80;;;;;;4995872;28;20396;-62
2021/08/03 03:59:43;;;;;;;4.22;0.90;;;23.20;62.10;;;;;;4990912;28;20385;-62
2021/08/03 04:02:10;;;;;;;3.90;0.90;;;23.20;61.70;;;;;;4990832;28;20402;-62
2021/08/03 04:04:41;;;;;;;3.97;0.88;;;23.10;61.80;;;;;;4994148;28;20383;-62
2021/08/03 04:07:07;;;;;;;4.35;1.00;;;23.10;61.70;;;;;;4992499;28;20468;-62
2021/08/03 04:09:33;;;;;;;4.63;1.10;;;23.20;61.70;;;;;;4991333;28;20386;-62
2021/08/03 04:11:59;;;;;;;5.07;0.90;;;23.20;61.90;;;;;;4995149;28;20429;-62
2021/08/03 04:14:27;;;;;;;3.83;1.15;;;23.10;61.20;;;;;;4990875;28;20445;-62
2021/08/03 04:16:55;;;;;;;4.30;1.00;;;23.10;60.80;;;;;;4995144;28;21039;-62
2021/08/03 04:19:21;;;;;;;2.92;1.10;;;23.00;60.40;;;;;;4989739;28;20413;-62
2021/08/03 04:21:46;;;;;;;3.08;1.00;;;23.00;60.20;;;;;;4990201;28;20406;-62
2021/08/03 04:24:13;;;;;;;2.47;1.10;;;23.00;60.20;;;;;;4990896;28;20577;-62
2021/08/03 04:26:39;;;;;;;4.20;0.98;;;23.00;60.10;;;;;;4994594;28;20459;-62
2021/08/03 04:29:05;;;;;;;1.60;0.77;;;23.00;60.00;;;;;;4990475;28;20421;-62
2021/08/03 04:31:31;;;;;;;1.50;0.70;;;23.00;60.10;;;;;;4990186;28;20483;-62
2021/08/03 04:33:57;;;;;;;4.05;0.95;;;23.00;60.00;;;;;;4990360;28;20401;-62
2021/08/03 04:36:22;;;;;;;1.73;0.90;;;23.00;60.00;;;;;;4989681;28;20397;-62
2021/08/03 04:38:48;;;;;;;3.20;0.87;;;23.00;60.00;;;;;;4986397;28;20383;-62
2021/08/03 04:41:14;;;;;;;1.98;0.90;;;23.00;60.10;;;;;;4986312;28;20398;-62
2021/08/03 04:43:42;;;;;;;1.83;0.80;;;23.00;60.20;;;;;;4990657;28;20398;-62
2021/08/03 04:46:09;;;;;;;2.67;0.80;;;23.00;60.10;;;;;;4994224;28;20463;-62
2021/08/03 04:48:34;;;;;;;1.75;0.80;;;22.90;60.10;;;;;;4987477;28;20413;-62
2021/08/03 04:51:00;;;;;;;2.90;0.90;;;22.90;60.00;;;;;;4990478;28;20390;-62
2021/08/03 04:53:26;;;;;;;1.83;0.85;;;22.90;60.20;;;;;;5018183;28;20414;-62
2021/08/03 04:55:51;;;;;;;2.27;0.90;;;23.00;60.20;;;;;;4990198;28;20481;-61
2021/08/03 04:58:17;;;;;;;2.25;0.77;;;22.90;60.30;;;;;;4990206;28;20509;-62
2021/08/03 05:00:43;;;;;;;2.93;0.70;;;22.90;60.20;;;;;;4990179;28;21325;-62
2021/08/03 05:03:10;;;;;;;2.92;0.80;;;22.90;60.20;;;;;;4990454;28;20383;-62
2021/08/03 05:05:36;;;;;;;2.15;0.85;;;23.00;60.20;;;;;;4989509;28;20392;-62
2021/08/03 05:08:02;;;;;;;1.30;0.70;;;22.90;60.30;;;;;;4989360;28;20401;-62
2021/08/03 05:10:29;;;;;;;1.05;0.75;;;22.90;60.20;;;;;;4990813;28;20464;-62
2021/08/03 05:12:55;;;;;;;1.15;0.70;;;22.90;60.20;;;;;;4991007;28;20404;-62
2021/08/03 05:15:22;;;;;;;1.95;0.70;;;22.90;60.20;;;;;;4993654;28;20381;-62
2021/08/03 05:17:47;;;;;;;1.40;0.70;;;22.90;60.30;;;;;;4986396;28;20412;-62
2021/08/03 05:20:13;;;;;;;1.52;0.82;;;22.90;60.30;;;;;;4993706;28;20432;-62
2021/08/03 05:22:40;;;;;;;1.40;0.85;;;22.90;60.30;;;;;;4984026;28;20758;-62
2021/08/03 05:25:06;;;;;;;1.60;0.90;;;22.90;60.20;;;;;;4994219;28;20823;-62
2021/08/03 05:27:32;;;;;;;1.30;0.85;;;22.90;60.20;;;;;;4994816;28;20474;-62
2021/08/03 05:29:57;;;;;;;1.33;0.80;;;22.90;60.80;;;;;;4995114;28;20377;-62
2021/08/03 05:32:23;;;;;;;2.03;0.90;;;22.90;60.30;;;;;;4988407;28;20617;-62
2021/08/03 05:34:49;;;;;;;1.83;0.80;;;22.90;60.10;;;;;;4994933;28;20388;-62
2021/08/03 05:37:15;;;;;;;1.70;0.75;;;22.90;60.20;;;;;;4987438;28;20395;-62
2021/08/03 05:39:41;;;;;;;1.23;0.70;;;22.90;60.40;;;;;;4989967;28;20410;-61
2021/08/03 05:42:06;;;;;;;1.40;0.70;;;22.90;60.30;;;;;;4994500;28;20397;-62
2021/08/03 05:44:32;;;;;;;1.10;0.80;;;22.90;60.20;;;;;;4994920;28;20906;-62
2021/08/03 05:46:59;;;;;;;1.20;0.80;;;22.90;60.30;;;;;;4986750;28;20426;-62
2021/08/03 05:49:26;;;;;;;1.17;0.80;;;22.90;60.30;;;;;;4986152;28;20421;-62
2021/08/03 05:51:51;;;;;;;1.75;0.85;;;22.90;60.30;;;;;;4986532;28;20656;-62
2021/08/03 05:54:17;;;;;;;1.13;0.75;;;22.80;60.30;;;;;;4986535;28;20732;-62
2021/08/03 05:56:43;;;;;;;0.95;0.70;;;22.80;60.30;;;;;;4989443;28;20404;-62
2021/08/03 05:59:09;;;;;;;1.50;0.75;;;22.80;60.30;;;;;;4990515;28;20390;-62
2021/08/03 06:01:35;;;;;;;1.50;0.85;;;22.80;60.40;;;;;;4989519;28;20407;-62
2021/08/03 06:04:01;;;;;;;1.20;0.70;;;22.80;60.30;;;;;;4989255;28;20970;-61
2021/08/03 06:06:28;;;;;;;1.02;0.80;;;22.90;60.40;;;;;;4994756;28;20405;-62
2021/08/03 06:08:56;;;;;;;1.42;1.00;;;22.80;60.40;;;;;;4989801;28;20422;-62
2021/08/03 06:11:25;;;;;;;1.30;0.95;;;22.90;60.30;;;;;;4989389;28;20394;-62
2021/08/03 06:13:53;;;;;;;1.88;0.88;;;22.80;60.30;;;;;;4989576;28;20401;-62
2021/08/03 06:16:21;;;;;;;1.40;0.80;;;22.90;60.40;;;;;;4983497;28;20414;-61
2021/08/03 06:18:48;;;;;;;1.40;0.82;;;22.80;60.30;;;;;;4988435;28;20515;-62
2021/08/03 06:21:16;;;;;;;1.73;0.80;;;22.80;60.30;;;;;;4989033;28;20628;-63
2021/08/03 06:23:47;;;;;;;1.40;0.80;;;22.80;60.40;;;;;;4988365;28;20380;-62
2021/08/03 06:26:14;;;;;;;1.20;0.90;;;22.90;60.40;;;;;;4983918;28;20421;-62
2021/08/03 06:28:44;;;;;;;1.33;0.90;;;22.80;60.40;;;;;;4988511;28;20900;-62
2021/08/03 06:31:10;;;;;;;1.85;0.80;;;22.80;60.30;;;;;;4988709;28;20389;-62
2021/08/03 06:33:36;;;;;;;1.10;0.70;;;22.80;60.40;;;;;;4990896;28;20403;-62
2021/08/03 06:36:01;;;;;;;1.05;0.70;;;22.80;60.90;;;;;;4986626;28;20418;-62
2021/08/03 06:38:27;;;;;;;1.10;0.70;;;22.80;60.40;;;;;;4988983;28;20406;-62
2021/08/03 06:41:09;;;;;;;1.17;0.70;;;22.90;60.40;;;;;;4989171;28;20485;-62
2021/08/03 06:43:43;;;;;;;1.38;0.82;;;22.80;61.00;;;;;;4984986;28;20405;-62
2021/08/03 06:46:10;;;;;;;1.52;0.75;;;22.80;60.40;;;;;;4982983;28;20422;-62
2021/08/03 06:48:57;;;;;;;1.52;0.80;;;22.80;60.30;;;;;;4989221;28;20406;-62
2021/08/03 06:51:24;;;;;;;1.27;0.70;;;22.90;60.40;;;;;;4989190;28;20401;-62
2021/08/03 06:53:52;;;;;;;1.35;0.82;;;22.90;60.40;;;;;;4986439;28;20963;-62
2021/08/03 06:56:21;;;;;;;1.20;0.60;;;22.80;60.50;;;;;;4989318;28;20415;-62
2021/08/03 06:59:04;;;;;;;0.88;0.65;;;22.80;60.30;;;;;;4989111;28;20814;-62
2021/08/03 07:01:48;;;;;;;1.50;0.80;;;22.80;60.40;;;;;;5023345;28;20455;-62
2021/08/03 07:04:20;;;;;;;1.77;0.90;;;22.90;60.40;;;;;;4988282;28;20751;-62
2021/08/03 07:06:51;;;;;;;1.50;0.80;;;22.90;60.50;;;;;;4991529;28;20426;-62
2021/08/03 07:09:18;;;;;;;1.13;0.80;;;22.80;60.40;;;;;;4991515;28;20990;-62
2021/08/03 07:11:43;;;;;;;1.50;0.90;;;22.90;60.40;;;;;;4991808;28;20404;-62
2021/08/03 07:14:11;;;;;;;1.30;0.80;;;22.90;60.40;;;;;;4996084;28;20381;-63
2021/08/03 07:16:39;;;;;;;1.35;0.80;;;22.90;60.40;;;;;;4992035;28;20402;-62
2021/08/03 07:19:05;;;;;;;1.88;0.80;;;22.90;60.60;;;;;;4992295;28;20752;-62
2021/08/03 07:21:31;;;;;;;1.45;0.88;;;22.90;60.40;;;;;;4995680;28;20392;-62
2021/08/03 07:23:57;;;;;;;1.33;0.82;;;22.90;60.50;;;;;;4996070;28;20896;-62
2021/08/03 07:26:24;;;;;;;1.20;0.80;;;22.90;60.50;;;;;;4989753;28;20437;-62
2021/08/03 07:28:50;;;;;;;1.10;0.73;;;22.80;60.40;;;;;;4991088;28;20868;-62
2021/08/03 07:31:16;;;;;;;1.20;0.88;;;22.90;60.50;;;;;;4991673;28;20417;-62
2021/08/03 07:33:41;;;;;;;1.20;0.60;;;22.90;60.50;;;;;;4991402;28;20394;-62
2021/08/03 07:36:07;;;;;;;1.20;0.70;;;22.90;60.50;;;;;;4991721;28;20410;-62
2021/08/03 07:38:33;;;;;;;1.00;0.70;;;22.90;60.50;;;;;;4994169;28;20751;-62
2021/08/03 07:40:59;;;;;;;1.00;0.80;;;22.90;60.50;;;;;;4985109;28;20401;-62
2021/08/03 07:43:24;;;;;;;1.05;0.75;;;22.90;60.50;;;;;;4989630;28;20389;-62
2021/08/03 07:45:50;;;;;;;1.53;0.70;;;22.90;60.50;;;;;;4991091;28;20547;-62
2021/08/03 07:48:16;;;;;;;1.10;0.70;;;22.90;60.50;;;;;;4994102;28;20409;-62
2021/08/03 07:50:42;;;;;;;2.05;0.82;;;22.90;60.50;;;;;;4991025;28;20449;-62
2021/08/03 07:53:08;;;;;;;1.17;0.70;;;22.90;60.50;;;;;;5019579;28;20481;-62
2021/08/03 07:55:33;;;;;;;0.90;0.60;;;22.90;60.50;;;;;;4994627;28;20398;-62
2021/08/03 07:57:59;;;;;;;1.15;0.70;;;22.90;60.50;;;;;;4995695;28;20396;-62
2021/08/03 08:00:25;;;;;;;1.20;0.73;;;22.90;60.50;;;;;;4989186;28;20386;-62
2021/08/03 08:02:50;;;;;;;1.33;0.70;;;22.90;60.40;;;;;;4991334;28;20394;-62
2021/08/03 08:05:16;;;;;;;0.80;0.60;;;22.90;60.50;;;;;;4991093;28;20398;-62
2021/08/03 08:07:42;;;;;;;0.95;0.60;;;22.90;61.00;;;;;;4991133;28;20426;-62
2021/08/03 08:10:08;;;;;;;1.00;0.70;;;22.90;60.50;;;;;;4991377;28;20459;-62
2021/08/03 08:12:34;;;;;;;1.27;0.70;;;22.90;60.50;;;;;;4990825;28;20402;-62
2021/08/03 08:15:00;;;;;;;1.30;0.90;;;22.90;60.50;;;;;;4997021;28;21039;-62
2021/08/03 08:17:25;;;;;;;1.03;0.70;;;22.90;60.40;;;;;;4989002;28;20522;-62
2021/08/03 08:19:51;;;;;;;1.10;0.70;;;22.90;60.50;;;;;;4986843;28;20502;-62
2021/08/03 08:22:17;;;;;;;1.20;0.70;;;22.90;60.50;;;;;;4994383;28;20432;-61
2021/08/03 08:24:42;;;;;;;1.20;0.80;;;22.90;60.50;;;;;;4989025;28;20399;-62
2021/08/03 08:27:08;;;;;;;1.17;0.73;;;22.90;60.60;;;;;;4996726;28;20416;-62
2021/08/03 08:29:36;;;;;;;1.25;0.80;;;22.90;60.40;;;;;;4990784;28;20487;-62
2021/08/03 08:32:03;;;;;;;1.13;0.80;;;22.90;60.50;;;;;;4995412;28;20476;-62
2021/08/03 08:34:28;;;;;;;1.20;0.73;;;22.90;60.50;;;;;;4995150;28;20389;-62
2021/08/03 08:36:54;;;;;;;1.13;0.73;;;22.90;60.50;;;;;;4995592;28;20452;-62
2021/08/03 08:39:20;;;;;;;1.07;0.70;;;22.90;60.40;;;;;;4998174;28;20483;-62
2021/08/03 08:41:45;;;;;;;1.43;0.80;;;22.90;60.50;;;;;;4984288;28;20445;-62
2021/08/03 08:44:11;;;;;;;1.13;0.80;;;22.90;60.50;;;;;;4990969;28;20401;-62
2021/08/03 08:46:38;;;;;;;1.00;0.70;;;22.90;60.40;;;;;;4992080;28;21046;-61
2021/08/03 08:49:05;;;;;;;1.10;0.68;;;22.90;60.50;;;;;;4991953;28;20394;-62
2021/08/03 08:51:32;;;;;;;1.13;0.70;;;22.90;60.40;;;;;;4985995;28;20403;-62
2021/08/03 08:53:59;;;;;;;3.20;0.73;;;22.90;60.50;;;;;;4990506;28;20397;-62
2021/08/03 08:56:27;;;;;;;2.95;0.80;;;22.90;60.50;;;;;;4985544;28;20402;-62
2021/08/03 08:58:53;;;;;;;3.53;0.90;;;22.90;60.60;;;;;;4990143;28;20953;-62
2021/08/03 09:01:18;;;;;;;1.10;0.70;;;22.90;60.60;;;;;;4984196;28;20402;-62
2021/08/03 09:03:44;;;;;;;2.30;0.75;;;22.90;60.50;;;;;;4984500;28;20520;-62
2021/08/03 09:06:10;;;;;;;2.10;1.00;;;22.90;60.50;;;;;;4988384;28;21009;-62
2021/08/03 09:08:46;;;;;;;2.35;0.80;;;22.90;60.70;;;;;;4987943;28;20759;-62
2021/08/03 09:11:13;;;;;;;2.15;0.85;;;23.00;60.80;;;;;;4987140;28;20385;-62
2021/08/03 09:13:57;;;;;;;1.45;0.65;;;23.00;60.90;;;;;;4987342;28;20549;-62
2021/08/03 09:16:25;;;;;;;1.53;0.80;;;22.90;60.80;;;;;;4986251;28;20394;-62
2021/08/03 09:18:53;;;;;;;1.52;0.60;;;23.00;60.80;;;;;;4985019;28;20415;-62
2021/08/03 09:21:21;;;;;;;1.30;0.65;;;23.00;60.80;;;;;;4985956;28;20803;-62
2021/08/03 09:23:51;;;;;;;1.00;0.77;;;22.90;60.80;;;;;;4987031;28;20399;-62
2021/08/03 09:26:37;;;;;;;1.20;0.70;;;22.90;60.70;;;;;;4984674;28;20422;-62
2021/08/03 09:29:08;;;;;;;1.70;0.70;;;22.90;60.80;;;;;;4986953;28;20442;-62
2021/08/03 09:31:36;;;;;;;1.35;0.70;;;22.90;60.80;;;;;;4985032;28;20451;-63
2021/08/03 09:34:11;;;;;;;1.67;0.73;;;22.90;60.70;;;;;;4985362;28;20394;-62
2021/08/03 09:36:50;;;;;;;1.08;0.70;;;23.00;60.80;;;;;;4984207;28;20759;-62
2021/08/03 09:39:39;;;;;;;1.20;0.75;;;23.00;60.90;;;;;;4984543;28;20830;-62
2021/08/03 09:42:15;;;;;;;1.25;0.70;;;23.00;60.90;;;;;;4983689;28;20426;-62
2021/08/03 09:44:47;;;;;;;1.10;0.60;;;22.90;60.80;;;;;;4985694;28;20894;-62
2021/08/03 09:47:13;;;;;;;1.70;0.80;;;22.90;60.80;;;;;;4985199;28;20426;-62
2021/08/03 09:49:42;;;;;;;1.90;0.70;;;22.90;60.80;;;;;;4986442;28;20394;-62
2021/08/03 09:52:13;;;;;;;1.80;0.70;;;23.00;60.90;;;;;;4985589;28;20402;-62
2021/08/03 09:54:40;;;;;;;1.73;0.75;;;23.00;60.90;;;;;;4983853;28;20481;-62
2021/08/03 09:57:22;;;;;;;1.73;0.80;;;23.00;60.80;;;;;;4983191;28;20822;-62
2021/08/03 09:59:49;;;;;;;1.25;0.60;;;22.90;61.20;;;;;;4983193;28;20397;-62
2021/08/03 10:02:26;;;;;;;1.73;0.70;;;23.00;60.90;;;;;;4983483;28;20403;-62
2021/08/03 10:04:54;;;;;;;1.10;0.80;;;22.90;60.80;;;;;;4983218;28;20478;-62
2021/08/03 10:07:20;;;;;;;1.80;0.80;;;22.90;60.80;;;;;;4983553;28;20422;-62
2021/08/03 10:09:50;;;;;;;1.10;0.70;;;23.00;60.90;;;;;;4983802;28;20423;-62
2021/08/03 10:12:17;;;;;;;1.20;0.80;;;22.90;60.80;;;;;;4983241;28;20944;-62
2021/08/03 10:14:47;;;;;;;1.40;0.70;;;22.90;60.90;;;;;;4982497;28;20403;-62
2021/08/03 10:17:15;;;;;;;1.58;0.82;;;22.90;60.90;;;;;;4983836;28;20414;-62
2021/08/03 10:19:41;;;;;;;1.20;0.70;;;23.00;60.90;;;;;;4984460;28;20401;-63
2021/08/03 10:22:28;;;;;;;0.95;0.60;;;22.90;60.90;;;;;;4983479;28;20891;-62
2021/08/03 10:25:01;;;;;;;1.40;0.80;;;23.00;60.90;;;;;;4983044;28;20398;-62
2021/08/03 10:27:52;;;;;;;1.30;0.70;;;23.00;60.90;;;;;;4983531;28;20449;-62
2021/08/03 10:30:29;;;;;;;1.20;0.70;;;23.00;60.90;;;;;;4984022;28;20533;-63
2021/08/03 10:32:57;;;;;;;1.10;0.70;;;23.00;60.90;;;;;;4982764;28;20402;-62
2021/08/03 10:35:46;;;;;;;1.27;0.77;;;23.00;60.90;;;;;;4983042;28;20396;-63
2021/08/03 10:38:30;;;;;;;1.10;0.77;;;23.00;60.90;;;;;;4989022;28;21279;-62
2021/08/03 10:40:57;;;;;;;1.33;0.80;;;23.00;60.80;;;;;;4986810;28;20402;-63
2021/08/03 10:43:35;;;;;;;1.23;0.80;;;23.00;60.90;;;;;;4990203;28;20416;-62
2021/08/03 10:46:06;;;;;;;1.17;0.70;;;23.00;60.80;;;;;;4986901;28;21039;-62
2021/08/03 10:48:38;;;;;;;1.20;0.80;;;23.00;60.90;;;;;;4987786;28;20395;-62
2021/08/03 10:51:13;;;;;;;1.52;0.70;;;23.00;60.90;;;;;;5017887;28;20394;-62
2021/08/03 10:53:57;;;;;;;1.33;0.70;;;23.00;60.80;;;;;;4987904;28;20521;-62
2021/08/03 10:56:23;;;;;;;0.90;0.60;;;23.00;60.80;;;;;;4986269;28;20818;-62
2021/08/03 10:58:49;;;;;;;1.00;0.60;;;23.00;60.80;;;;;;5019740;28;20873;-62
2021/08/03 11:01:43;;;;;;;1.20;0.60;;;23.00;60.80;;;;;;4986519;28;20473;-63
2021/08/03 11:04:09;;;;;;;0.90;0.63;;;23.00;60.80;;;;;;4987360;28;20901;-62
2021/08/03 11:06:36;;;;;;;1.10;0.70;;;23.00;60.80;;;;;;4986725;28;20426;-62
2021/08/03 11:09:32;;;;;;;0.82;0.50;;;23.00;60.80;;;;;;4986451;28;20394;-62
2021/08/03 11:12:36;;;;;;;1.38;0.70;;;23.00;60.70;;;;;;4986483;28;20386;-63
2021/08/03 11:15:23;;;;;;;1.50;0.75;;;23.00;60.70;;;;;;4986208;28;20720;-62
2021/08/03 11:17:54;;;;;;;1.05;0.80;;;23.10;60.70;;;;;;4986258;28;20425;-62
2021/08/03 11:20:39;;;;;;;1.48;0.80;;;23.10;60.70;;;;;;4986734;28;20460;-63
2021/08/03 11:23:05;;;;;;;0.90;0.70;;;23.10;60.80;;;;;;4986867;28;20395;-62
2021/08/03 11:25:32;;;;;;;1.13;0.70;;;23.10;60.70;;;;;;4985725;28;20898;-62
2021/08/03 11:28:14;;;;;;;0.95;0.60;;;23.10;60.80;;;;;;4985842;28;20917;-62
2021/08/03 11:30:43;;;;;;;1.67;0.90;;;23.10;60.70;;;;;;5019090;28;20466;-62
2021/08/03 11:33:11;;;;;;;1.15;0.80;;;23.10;60.70;;;;;;4986037;28;20417;-62
2021/08/03 11:35:37;;;;;;;1.40;0.77;;;23.10;60.70;;;;;;5018557;28;20874;-62
2021/08/03 11:38:05;;;;;;;1.33;0.80;;;23.10;60.70;;;;;;4986144;28;20469;-62
2021/08/03 11:40:32;;;;;;;1.38;1.00;;;23.10;60.70;;;;;;4988290;28;21094;-62
2021/08/03 11:43:01;;;;;;;1.02;0.70;;;23.10;60.60;;;;;;4985289;28;20421;-62
2021/08/03 11:45:27;;;;;;;1.17;0.90;;;23.10;60.60;;;;;;4986207;28;20395;-62
2021/08/03 11:47:59;;;;;;;1.50;0.80;;;23.10;60.70;;;;;;4984943;28;20778;-62
2021/08/03 11:50:41;;;;;;;1.10;0.80;;;23.10;60.60;;;;;;4985217;28;20414;-62
2021/08/03 11:53:12;;;;;;;1.13;0.80;;;23.10;60.60;;;;;;4984859;28;20402;-63
2021/08/03 11:55:44;;;;;;;1.27;0.87;;;23.10;60.60;;;;;;4987554;28;20398;-62
2021/08/03 11:58:13;;;;;;;1.20;0.80;;;23.10;60.70;;;;;;4985487;28;20895;-62
2021/08/03 12:00:39;;;;;;;1.30;0.80;;;23.10;60.60;;;;;;4987471;28;20955;-62
2021/08/03 12:03:05;;;;;;;1.40;0.87;;;23.10;60.70;;;;;;4984879;28;20490;-62
2021/08/03 12:05:37;;;;;;;1.00;0.70;;;23.10;60.60;;;;;;4985425;28;20961;-61
2021/08/03 12:08:05;;;;;;;0.90;0.80;;;23.10;60.60;;;;;;4984387;28;20412;-62
2021/08/03 12:10:38;;;;;;;1.50;0.90;;;23.10;60.70;;;;;;4987249;28;20489;-62
2021/08/03 12:13:06;;;;;;;2.10;0.98;;;23.10;60.60;;;;;;4985327;28;20398;-62
2021/08/03 12:15:47;;;;;;;5.70;1.00;;;23.10;60.60;;;;;;4989657;28;20466;-62
2021/08/03 12:18:13;;;;;;;2.97;1.10;;;23.10;60.60;;;;;;4987065;28;20910;-62
2021/08/03 12:20:40;;;;;;;2.75;1.10;;;23.10;60.60;;;;;;4988033;28;20401;-62
2021/08/03 12:23:17;;;;;;;1.80;1.08;;;23.10;60.40;;;;;;4988756;28;20382;-62
2021/08/03 12:25:46;;;;;;;3.58;1.23;;;23.10;60.40;;;;;;4985317;28;20394;-62
2021/08/03 12:28:35;;;;;;;4.37;1.30;;;23.20;60.50;;;;;;4987892;28;20522;-62
2021/08/03 12:31:31;;;;;;;7.80;1.33;;;23.30;61.10;;;;;;4984672;28;20835;-63
2021/08/03 12:34:06;;;;;;;8.65;1.58;;;23.40;61.00;;;;;;4983448;28;20403;-63
2021/08/03 12:36:45;;;;;;;10.37;1.40;;;23.50;61.20;;;;;;4987550;28;20458;-62
2021/08/03 12:39:21;;;;;;;9.88;1.42;;;23.60;61.10;;;;;;4985975;28;20394;-62
2021/08/03 12:42:05;;;;;;;5.35;1.25;;;23.70;61.40;;;;;;4985470;28;20508;-62
2021/08/03 12:44:33;;;;;;;7.03;1.70;;;23.70;61.20;;;;;;5020475;28;20402;-62
2021/08/03 12:47:07;;;;;;;4.40;1.30;;;23.70;61.20;;;;;;4989413;28;20426;-62
2021/08/03 12:49:37;;;;;;;11.10;1.50;;;23.70;61.30;;;;;;4985382;28;20398;-63
2021/08/03 12:52:11;;;;;;;5.18;1.48;;;23.70;61.40;;;;;;4990604;28;20409;-63
2021/08/03 12:54:37;;;;;;;4.80;1.45;;;23.80;61.30;;;;;;4992560;28;20393;-62
2021/08/03 12:57:06;;;;;;;8.52;1.50;;;23.80;61.70;;;;;;4988056;28;20417;-62
2021/08/03 12:59:43;;;;;;;8.00;1.63;;;23.80;61.60;;;;;;4988671;28;20398;-62
2021/08/03 13:02:16;;;;;;;6.20;1.60;;;23.80;61.50;;;;;;4987726;28;20413;-63